sensor_id;sensor_type;location;lat;lon;timestamp;P1;durP1;ratioP1;P2;durP2;ratioP2
33152;SDS011;19509;43.862;26.176;2022-12-10T00:01:35;87.97;;;11.40;;
33152;SDS011;19509;43.862;26.176;2022-12-10T00:03:55;51.73;;;8.30;;
33152;SDS011;19509;43.862;26.176;2022-12-10T00:06:23;103.77;;;16.10;;
33152;SDS011;19509;43.862;26.176;2022-12-10T00:08:50;38.50;;;7.17;;
33152;SDS011;19509;43.862;26.176;2022-12-10T00:11:16;99.70;;;16.27;;
33152;SDS011;19509;43.862;26.176;2022-12-10T00:13:43;75.10;;;12.80;;
33152;SDS011;19509;43.862;26.176;2022-12-10T00:16:10;25.37;;;6.43;;
33152;SDS011;19509;43.862;26.176;2022-12-10T00:18:37;94.70;;;13.30;;
33152;SDS011;19509;43.862;26.176;2022-12-10T00:21:07;62.60;;;10.13;;
33152;SDS011;19509;43.862;26.176;2022-12-10T00:23:34;86.00;;;13.23;;
33152;SDS011;19509;43.862;26.176;2022-12-10T00:28:56;91.23;;;15.90;;
33152;SDS011;19509;43.862;26.176;2022-12-10T00:31:26;60.97;;;12.87;;
33152;SDS011;19509;43.862;26.176;2022-12-10T00:33:57;65.67;;;12.43;;
33152;SDS011;19509;43.862;26.176;2022-12-10T00:36:34;61.37;;;9.73;;
33152;SDS011;19509;43.862;26.176;2022-12-10T00:39:04;27.93;;;5.40;;
33152;SDS011;19509;43.862;26.176;2022-12-10T00:41:31;74.03;;;12.57;;
33152;SDS011;19509;43.862;26.176;2022-12-10T00:43:57;35.13;;;6.20;;
33152;SDS011;19509;43.862;26.176;2022-12-10T00:46:22;72.10;;;10.57;;
33152;SDS011;19509;43.862;26.176;2022-12-10T00:48:48;53.43;;;7.40;;
33152;SDS011;19509;43.862;26.176;2022-12-10T00:51:18;84.43;;;17.30;;
33152;SDS011;19509;43.862;26.176;2022-12-10T00:53:46;73.47;;;14.37;;
33152;SDS011;19509;43.862;26.176;2022-12-10T00:56:13;44.90;;;6.63;;
33152;SDS011;19509;43.862;26.176;2022-12-10T00:58:40;70.37;;;11.97;;
33152;SDS011;19509;43.862;26.176;2022-12-10T01:01:40;60.53;;;11.90;;
33152;SDS011;19509;43.862;26.176;2022-12-10T01:04:04;50.83;;;11.97;;
33152;SDS011;19509;43.862;26.176;2022-12-10T01:06:33;60.67;;;11.40;;
33152;SDS011;19509;43.862;26.176;2022-12-10T01:09:02;59.37;;;13.07;;
33152;SDS011;19509;43.862;26.176;2022-12-10T01:11:31;70.33;;;12.40;;
33152;SDS011;19509;43.862;26.176;2022-12-10T01:13:57;98.33;;;14.30;;
33152;SDS011;19509;43.862;26.176;2022-12-10T01:16:24;53.67;;;8.73;;
33152;SDS011;19509;43.862;26.176;2022-12-10T01:18:52;79.20;;;12.60;;
33152;SDS011;19509;43.862;26.176;2022-12-10T01:21:19;82.93;;;12.10;;
33152;SDS011;19509;43.862;26.176;2022-12-10T01:23:47;55.57;;;9.63;;
33152;SDS011;19509;43.862;26.176;2022-12-10T01:26:20;93.90;;;13.40;;
33152;SDS011;19509;43.862;26.176;2022-12-10T01:28:50;101.40;;;13.57;;
33152;SDS011;19509;43.862;26.176;2022-12-10T01:31:18;50.87;;;8.00;;
33152;SDS011;19509;43.862;26.176;2022-12-10T01:33:46;48.77;;;10.37;;
33152;SDS011;19509;43.862;26.176;2022-12-10T01:36:13;63.77;;;13.60;;
33152;SDS011;19509;43.862;26.176;2022-12-10T01:38:40;119.70;;;19.87;;
33152;SDS011;19509;43.862;26.176;2022-12-10T01:41:08;152.53;;;17.63;;
33152;SDS011;19509;43.862;26.176;2022-12-10T01:46:18;30.87;;;9.70;;
33152;SDS011;19509;43.862;26.176;2022-12-10T01:48:44;70.03;;;15.77;;
33152;SDS011;19509;43.862;26.176;2022-12-10T01:51:11;108.20;;;14.90;;
33152;SDS011;19509;43.862;26.176;2022-12-10T01:53:38;120.00;;;16.13;;
33152;SDS011;19509;43.862;26.176;2022-12-10T01:56:04;76.23;;;10.27;;
33152;SDS011;19509;43.862;26.176;2022-12-10T01:58:29;71.50;;;11.63;;
33152;SDS011;19509;43.862;26.176;2022-12-10T02:01:02;75.50;;;10.93;;
33152;SDS011;19509;43.862;26.176;2022-12-10T02:03:37;107.67;;;18.20;;
33152;SDS011;19509;43.862;26.176;2022-12-10T02:15:02;59.30;;;11.60;;
33152;SDS011;19509;43.862;26.176;2022-12-10T02:17:40;71.33;;;12.03;;
33152;SDS011;19509;43.862;26.176;2022-12-10T02:22:50;69.53;;;13.43;;
33152;SDS011;19509;43.862;26.176;2022-12-10T02:25:20;65.27;;;14.73;;
33152;SDS011;19509;43.862;26.176;2022-12-10T02:30:28;51.67;;;10.33;;
33152;SDS011;19509;43.862;26.176;2022-12-10T02:32:56;50.33;;;10.07;;
33152;SDS011;19509;43.862;26.176;2022-12-10T02:35:26;67.67;;;13.80;;
33152;SDS011;19509;43.862;26.176;2022-12-10T02:37:59;50.83;;;8.50;;
33152;SDS011;19509;43.862;26.176;2022-12-10T02:40:38;64.47;;;12.40;;
33152;SDS011;19509;43.862;26.176;2022-12-10T02:43:07;44.23;;;10.00;;
33152;SDS011;19509;43.862;26.176;2022-12-10T02:45:35;82.43;;;14.60;;
33152;SDS011;19509;43.862;26.176;2022-12-10T02:48:03;60.47;;;12.17;;
33152;SDS011;19509;43.862;26.176;2022-12-10T02:50:29;93.77;;;12.47;;
33152;SDS011;19509;43.862;26.176;2022-12-10T02:52:55;42.43;;;6.60;;
33152;SDS011;19509;43.862;26.176;2022-12-10T02:55:20;29.70;;;5.67;;
33152;SDS011;19509;43.862;26.176;2022-12-10T02:58:00;20.80;;;5.37;;
33152;SDS011;19509;43.862;26.176;2022-12-10T03:00:38;15.13;;;4.73;;
33152;SDS011;19509;43.862;26.176;2022-12-10T03:05:54;5.90;;;2.80;;
33152;SDS011;19509;43.862;26.176;2022-12-10T03:13:39;29.13;;;5.50;;
33152;SDS011;19509;43.862;26.176;2022-12-10T03:16:17;50.37;;;11.50;;
33152;SDS011;19509;43.862;26.176;2022-12-10T03:18:46;21.23;;;7.87;;
33152;SDS011;19509;43.862;26.176;2022-12-10T03:21:14;40.90;;;11.83;;
33152;SDS011;19509;43.862;26.176;2022-12-10T03:23:41;25.10;;;9.00;;
33152;SDS011;19509;43.862;26.176;2022-12-10T03:26:11;51.60;;;7.90;;
33152;SDS011;19509;43.862;26.176;2022-12-10T03:28:41;51.17;;;9.90;;
33152;SDS011;19509;43.862;26.176;2022-12-10T03:31:12;46.83;;;13.67;;
33152;SDS011;19509;43.862;26.176;2022-12-10T03:33:39;65.03;;;14.23;;
33152;SDS011;19509;43.862;26.176;2022-12-10T03:36:05;38.03;;;10.30;;
33152;SDS011;19509;43.862;26.176;2022-12-10T03:38:33;30.83;;;11.50;;
33152;SDS011;19509;43.862;26.176;2022-12-10T03:40:59;56.57;;;14.73;;
33152;SDS011;19509;43.862;26.176;2022-12-10T03:43:25;10.77;;;4.40;;
33152;SDS011;19509;43.862;26.176;2022-12-10T03:45:50;36.63;;;14.10;;
33152;SDS011;19509;43.862;26.176;2022-12-10T03:48:15;28.10;;;9.57;;
33152;SDS011;19509;43.862;26.176;2022-12-10T03:50:41;27.17;;;8.67;;
33152;SDS011;19509;43.862;26.176;2022-12-10T03:53:06;23.77;;;7.03;;
33152;SDS011;19509;43.862;26.176;2022-12-10T03:55:32;30.57;;;7.23;;
33152;SDS011;19509;43.862;26.176;2022-12-10T03:57:58;37.13;;;9.53;;
33152;SDS011;19509;43.862;26.176;2022-12-10T04:00:23;38.13;;;9.97;;
33152;SDS011;19509;43.862;26.176;2022-12-10T04:02:49;72.17;;;15.70;;
33152;SDS011;19509;43.862;26.176;2022-12-10T04:05:14;46.97;;;10.40;;
33152;SDS011;19509;43.862;26.176;2022-12-10T04:07:40;26.60;;;6.17;;
33152;SDS011;19509;43.862;26.176;2022-12-10T04:10:06;18.60;;;5.77;;
33152;SDS011;19509;43.862;26.176;2022-12-10T04:12:32;8.13;;;3.50;;
33152;SDS011;19509;43.862;26.176;2022-12-10T04:14:57;3.77;;;2.23;;
33152;SDS011;19509;43.862;26.176;2022-12-10T04:17:41;34.47;;;5.80;;
33152;SDS011;19509;43.862;26.176;2022-12-10T04:20:07;52.33;;;11.30;;
33152;SDS011;19509;43.862;26.176;2022-12-10T04:22:52;28.83;;;5.43;;
33152;SDS011;19509;43.862;26.176;2022-12-10T04:25:38;61.03;;;11.33;;
33152;SDS011;19509;43.862;26.176;2022-12-10T04:28:22;37.33;;;6.47;;
33152;SDS011;19509;43.862;26.176;2022-12-10T04:30:48;37.63;;;7.00;;
33152;SDS011;19509;43.862;26.176;2022-12-10T04:33:13;8.37;;;6.30;;
33152;SDS011;19509;43.862;26.176;2022-12-10T04:35:38;3.23;;;3.03;;
33152;SDS011;19509;43.862;26.176;2022-12-10T04:38:04;2.93;;;2.83;;
33152;SDS011;19509;43.862;26.176;2022-12-10T04:40:29;3.00;;;2.90;;
33152;SDS011;19509;43.862;26.176;2022-12-10T04:42:55;3.00;;;2.90;;
33152;SDS011;19509;43.862;26.176;2022-12-10T04:45:20;9.00;;;4.80;;
33152;SDS011;19509;43.862;26.176;2022-12-10T04:47:45;3.70;;;2.80;;
33152;SDS011;19509;43.862;26.176;2022-12-10T04:50:11;5.23;;;3.07;;
33152;SDS011;19509;43.862;26.176;2022-12-10T04:52:36;23.93;;;5.97;;
33152;SDS011;19509;43.862;26.176;2022-12-10T04:55:02;20.10;;;6.63;;
33152;SDS011;19509;43.862;26.176;2022-12-10T04:57:27;24.73;;;6.20;;
33152;SDS011;19509;43.862;26.176;2022-12-10T04:59:53;11.33;;;4.20;;
33152;SDS011;19509;43.862;26.176;2022-12-10T05:02:18;28.10;;;7.23;;
33152;SDS011;19509;43.862;26.176;2022-12-10T05:04:43;86.83;;;15.87;;
33152;SDS011;19509;43.862;26.176;2022-12-10T05:07:09;112.87;;;17.20;;
33152;SDS011;19509;43.862;26.176;2022-12-10T05:09:34;61.60;;;11.17;;
33152;SDS011;19509;43.862;26.176;2022-12-10T05:12:00;38.80;;;6.20;;
33152;SDS011;19509;43.862;26.176;2022-12-10T05:14:25;35.37;;;7.57;;
33152;SDS011;19509;43.862;26.176;2022-12-10T05:16:50;40.40;;;11.57;;
33152;SDS011;19509;43.862;26.176;2022-12-10T05:19:16;58.57;;;11.40;;
33152;SDS011;19509;43.862;26.176;2022-12-10T05:21:44;15.93;;;5.07;;
33152;SDS011;19509;43.862;26.176;2022-12-10T05:24:28;25.87;;;6.70;;
33152;SDS011;19509;43.862;26.176;2022-12-10T05:26:53;8.90;;;3.87;;
33152;SDS011;19509;43.862;26.176;2022-12-10T05:29:19;3.30;;;3.20;;
33152;SDS011;19509;43.862;26.176;2022-12-10T05:31:44;3.40;;;3.30;;
33152;SDS011;19509;43.862;26.176;2022-12-10T05:34:10;2.53;;;2.50;;
33152;SDS011;19509;43.862;26.176;2022-12-10T05:36:36;2.20;;;2.20;;
33152;SDS011;19509;43.862;26.176;2022-12-10T05:39:02;1.93;;;1.93;;
33152;SDS011;19509;43.862;26.176;2022-12-10T05:41:29;1.83;;;1.83;;
33152;SDS011;19509;43.862;26.176;2022-12-10T05:43:56;1.90;;;1.90;;
33152;SDS011;19509;43.862;26.176;2022-12-10T05:46:24;2.17;;;2.17;;
33152;SDS011;19509;43.862;26.176;2022-12-10T05:48:52;2.30;;;2.30;;
33152;SDS011;19509;43.862;26.176;2022-12-10T05:51:19;2.10;;;2.10;;
33152;SDS011;19509;43.862;26.176;2022-12-10T05:53:47;2.70;;;2.70;;
33152;SDS011;19509;43.862;26.176;2022-12-10T05:56:14;2.73;;;2.73;;
33152;SDS011;19509;43.862;26.176;2022-12-10T05:58:42;2.13;;;2.03;;
33152;SDS011;19509;43.862;26.176;2022-12-10T06:01:12;1.90;;;1.90;;
33152;SDS011;19509;43.862;26.176;2022-12-10T06:03:39;1.80;;;1.80;;
33152;SDS011;19509;43.862;26.176;2022-12-10T06:06:05;1.90;;;1.90;;
33152;SDS011;19509;43.862;26.176;2022-12-10T06:08:32;2.17;;;2.17;;
33152;SDS011;19509;43.862;26.176;2022-12-10T06:11:05;1.80;;;1.80;;
33152;SDS011;19509;43.862;26.176;2022-12-10T06:13:33;1.50;;;1.50;;
33152;SDS011;19509;43.862;26.176;2022-12-10T06:15:59;1.70;;;1.70;;
33152;SDS011;19509;43.862;26.176;2022-12-10T06:18:24;1.67;;;1.67;;
33152;SDS011;19509;43.862;26.176;2022-12-10T06:20:50;1.67;;;1.67;;
33152;SDS011;19509;43.862;26.176;2022-12-10T06:23:15;1.53;;;1.53;;
33152;SDS011;19509;43.862;26.176;2022-12-10T06:25:41;1.53;;;1.53;;
33152;SDS011;19509;43.862;26.176;2022-12-10T06:28:07;1.60;;;1.60;;
33152;SDS011;19509;43.862;26.176;2022-12-10T06:30:32;1.57;;;1.57;;
33152;SDS011;19509;43.862;26.176;2022-12-10T06:32:58;2.10;;;2.10;;
33152;SDS011;19509;43.862;26.176;2022-12-10T06:35:24;1.80;;;1.80;;
33152;SDS011;19509;43.862;26.176;2022-12-10T06:37:50;1.70;;;1.70;;
33152;SDS011;19509;43.862;26.176;2022-12-10T06:40:15;1.60;;;1.60;;
33152;SDS011;19509;43.862;26.176;2022-12-10T06:42:42;1.80;;;1.70;;
33152;SDS011;19509;43.862;26.176;2022-12-10T06:45:07;1.60;;;1.60;;
33152;SDS011;19509;43.862;26.176;2022-12-10T06:47:33;1.60;;;1.60;;
33152;SDS011;19509;43.862;26.176;2022-12-10T06:49:59;1.70;;;1.70;;
33152;SDS011;19509;43.862;26.176;2022-12-10T06:52:24;1.60;;;1.60;;
33152;SDS011;19509;43.862;26.176;2022-12-10T06:54:50;1.63;;;1.63;;
33152;SDS011;19509;43.862;26.176;2022-12-10T06:57:15;1.50;;;1.50;;
33152;SDS011;19509;43.862;26.176;2022-12-10T06:59:41;1.70;;;1.70;;
33152;SDS011;19509;43.862;26.176;2022-12-10T07:02:07;1.70;;;1.70;;
33152;SDS011;19509;43.862;26.176;2022-12-10T07:04:37;1.77;;;1.77;;
33152;SDS011;19509;43.862;26.176;2022-12-10T07:07:03;1.60;;;1.60;;
33152;SDS011;19509;43.862;26.176;2022-12-10T07:09:32;1.60;;;1.60;;
33152;SDS011;19509;43.862;26.176;2022-12-10T07:11:59;1.60;;;1.60;;
33152;SDS011;19509;43.862;26.176;2022-12-10T07:14:24;1.60;;;1.60;;
33152;SDS011;19509;43.862;26.176;2022-12-10T07:16:50;2.10;;;1.90;;
33152;SDS011;19509;43.862;26.176;2022-12-10T07:19:16;1.40;;;1.40;;
33152;SDS011;19509;43.862;26.176;2022-12-10T07:21:41;1.40;;;1.40;;
33152;SDS011;19509;43.862;26.176;2022-12-10T07:24:15;1.47;;;1.47;;
33152;SDS011;19509;43.862;26.176;2022-12-10T07:26:42;1.47;;;1.43;;
33152;SDS011;19509;43.862;26.176;2022-12-10T07:29:09;1.33;;;1.33;;
33152;SDS011;19509;43.862;26.176;2022-12-10T07:31:38;1.50;;;1.50;;
33152;SDS011;19509;43.862;26.176;2022-12-10T07:34:03;2.30;;;2.30;;
33152;SDS011;19509;43.862;26.176;2022-12-10T07:36:29;1.70;;;1.70;;
33152;SDS011;19509;43.862;26.176;2022-12-10T07:38:55;1.30;;;1.30;;
33152;SDS011;19509;43.862;26.176;2022-12-10T07:41:21;1.70;;;1.70;;
33152;SDS011;19509;43.862;26.176;2022-12-10T07:43:47;1.60;;;1.50;;
33152;SDS011;19509;43.862;26.176;2022-12-10T07:48:42;1.23;;;1.23;;
33152;SDS011;19509;43.862;26.176;2022-12-10T07:51:08;1.10;;;1.10;;
33152;SDS011;19509;43.862;26.176;2022-12-10T07:53:34;1.10;;;1.10;;
33152;SDS011;19509;43.862;26.176;2022-12-10T07:56:00;1.07;;;1.07;;
33152;SDS011;19509;43.862;26.176;2022-12-10T07:58:26;1.33;;;1.33;;
33152;SDS011;19509;43.862;26.176;2022-12-10T08:00:52;1.10;;;1.10;;
33152;SDS011;19509;43.862;26.176;2022-12-10T08:03:17;1.20;;;1.10;;
33152;SDS011;19509;43.862;26.176;2022-12-10T08:05:43;1.20;;;1.20;;
33152;SDS011;19509;43.862;26.176;2022-12-10T08:08:08;1.30;;;1.30;;
33152;SDS011;19509;43.862;26.176;2022-12-10T08:10:37;1.43;;;1.43;;
33152;SDS011;19509;43.862;26.176;2022-12-10T08:13:03;1.37;;;1.37;;
33152;SDS011;19509;43.862;26.176;2022-12-10T08:15:29;1.60;;;1.60;;
33152;SDS011;19509;43.862;26.176;2022-12-10T08:17:55;1.60;;;1.60;;
33152;SDS011;19509;43.862;26.176;2022-12-10T08:20:21;1.40;;;1.40;;
33152;SDS011;19509;43.862;26.176;2022-12-10T08:22:48;1.63;;;1.63;;
33152;SDS011;19509;43.862;26.176;2022-12-10T08:25:13;1.33;;;1.33;;
33152;SDS011;19509;43.862;26.176;2022-12-10T08:27:39;1.73;;;1.50;;
33152;SDS011;19509;43.862;26.176;2022-12-10T08:30:04;1.23;;;1.23;;
33152;SDS011;19509;43.862;26.176;2022-12-10T08:32:31;1.30;;;1.30;;
33152;SDS011;19509;43.862;26.176;2022-12-10T08:34:56;1.50;;;1.50;;
33152;SDS011;19509;43.862;26.176;2022-12-10T08:37:21;1.37;;;1.37;;
33152;SDS011;19509;43.862;26.176;2022-12-10T08:39:47;1.37;;;1.37;;
33152;SDS011;19509;43.862;26.176;2022-12-10T08:42:12;1.40;;;1.40;;
33152;SDS011;19509;43.862;26.176;2022-12-10T08:44:38;1.30;;;1.30;;
33152;SDS011;19509;43.862;26.176;2022-12-10T08:47:03;1.23;;;1.23;;
33152;SDS011;19509;43.862;26.176;2022-12-10T08:49:29;1.10;;;1.10;;
33152;SDS011;19509;43.862;26.176;2022-12-10T08:51:55;1.20;;;1.20;;
33152;SDS011;19509;43.862;26.176;2022-12-10T08:54:20;1.30;;;1.30;;
33152;SDS011;19509;43.862;26.176;2022-12-10T08:56:46;1.00;;;1.00;;
33152;SDS011;19509;43.862;26.176;2022-12-10T08:59:11;1.53;;;1.53;;
33152;SDS011;19509;43.862;26.176;2022-12-10T09:01:36;1.30;;;1.20;;
33152;SDS011;19509;43.862;26.176;2022-12-10T09:04:02;1.10;;;1.10;;
33152;SDS011;19509;43.862;26.176;2022-12-10T09:06:28;1.20;;;1.20;;
33152;SDS011;19509;43.862;26.176;2022-12-10T09:08:54;1.20;;;1.10;;
33152;SDS011;19509;43.862;26.176;2022-12-10T09:11:25;1.20;;;1.20;;
33152;SDS011;19509;43.862;26.176;2022-12-10T09:13:52;1.20;;;1.20;;
33152;SDS011;19509;43.862;26.176;2022-12-10T09:16:18;1.03;;;1.03;;
33152;SDS011;19509;43.862;26.176;2022-12-10T09:18:44;1.10;;;1.10;;
33152;SDS011;19509;43.862;26.176;2022-12-10T09:21:11;1.10;;;1.10;;
33152;SDS011;19509;43.862;26.176;2022-12-10T09:23:38;1.40;;;1.40;;
33152;SDS011;19509;43.862;26.176;2022-12-10T09:26:05;1.40;;;1.40;;
33152;SDS011;19509;43.862;26.176;2022-12-10T09:28:35;1.50;;;1.50;;
33152;SDS011;19509;43.862;26.176;2022-12-10T09:31:02;1.30;;;1.30;;
33152;SDS011;19509;43.862;26.176;2022-12-10T09:33:29;1.40;;;1.40;;
33152;SDS011;19509;43.862;26.176;2022-12-10T09:35:55;1.30;;;1.30;;
33152;SDS011;19509;43.862;26.176;2022-12-10T09:38:20;1.20;;;1.20;;
33152;SDS011;19509;43.862;26.176;2022-12-10T09:41:02;2.17;;;2.13;;
33152;SDS011;19509;43.862;26.176;2022-12-10T09:48:34;1.10;;;1.10;;
33152;SDS011;19509;43.862;26.176;2022-12-10T09:51:14;1.07;;;1.07;;
33152;SDS011;19509;43.862;26.176;2022-12-10T09:53:48;1.33;;;1.23;;
33152;SDS011;19509;43.862;26.176;2022-12-10T09:56:26;1.20;;;1.20;;
33152;SDS011;19509;43.862;26.176;2022-12-10T09:58:57;1.20;;;1.20;;
33152;SDS011;19509;43.862;26.176;2022-12-10T10:01:27;1.13;;;1.13;;
33152;SDS011;19509;43.862;26.176;2022-12-10T10:03:54;1.33;;;1.33;;
33152;SDS011;19509;43.862;26.176;2022-12-10T10:06:20;1.20;;;1.20;;
33152;SDS011;19509;43.862;26.176;2022-12-10T10:08:50;1.10;;;1.10;;
33152;SDS011;19509;43.862;26.176;2022-12-10T10:11:20;1.10;;;1.10;;
33152;SDS011;19509;43.862;26.176;2022-12-10T10:21:38;1.40;;;1.40;;
33152;SDS011;19509;43.862;26.176;2022-12-10T10:24:05;1.30;;;1.30;;
33152;SDS011;19509;43.862;26.176;2022-12-10T10:26:36;1.20;;;1.20;;
33152;SDS011;19509;43.862;26.176;2022-12-10T10:29:04;1.20;;;1.20;;
33152;SDS011;19509;43.862;26.176;2022-12-10T10:31:32;1.30;;;1.30;;
33152;SDS011;19509;43.862;26.176;2022-12-10T10:34:05;1.10;;;1.10;;
33152;SDS011;19509;43.862;26.176;2022-12-10T10:36:38;1.40;;;1.40;;
33152;SDS011;19509;43.862;26.176;2022-12-10T10:41:51;1.00;;;1.00;;
33152;SDS011;19509;43.862;26.176;2022-12-10T10:44:19;1.30;;;1.30;;
33152;SDS011;19509;43.862;26.176;2022-12-10T10:46:47;1.30;;;1.30;;
33152;SDS011;19509;43.862;26.176;2022-12-10T10:51:49;1.70;;;1.70;;
33152;SDS011;19509;43.862;26.176;2022-12-10T10:57:06;1.43;;;1.43;;
33152;SDS011;19509;43.862;26.176;2022-12-10T10:59:40;1.50;;;1.50;;
33152;SDS011;19509;43.862;26.176;2022-12-10T11:02:18;1.50;;;1.50;;
33152;SDS011;19509;43.862;26.176;2022-12-10T11:04:49;1.37;;;1.37;;
33152;SDS011;19509;43.862;26.176;2022-12-10T11:07:32;1.23;;;1.23;;
33152;SDS011;19509;43.862;26.176;2022-12-10T11:10:00;1.50;;;1.40;;
33152;SDS011;19509;43.862;26.176;2022-12-10T11:12:33;1.30;;;1.30;;
33152;SDS011;19509;43.862;26.176;2022-12-10T11:14:59;1.70;;;1.70;;
33152;SDS011;19509;43.862;26.176;2022-12-10T11:17:26;1.60;;;1.60;;
33152;SDS011;19509;43.862;26.176;2022-12-10T11:20:00;1.70;;;1.70;;
33152;SDS011;19509;43.862;26.176;2022-12-10T11:22:50;1.53;;;1.53;;
33152;SDS011;19509;43.862;26.176;2022-12-10T11:25:18;1.63;;;1.63;;
33152;SDS011;19509;43.862;26.176;2022-12-10T11:28:36;1.50;;;1.50;;
33152;SDS011;19509;43.862;26.176;2022-12-10T11:31:05;1.70;;;1.70;;
33152;SDS011;19509;43.862;26.176;2022-12-10T11:33:37;1.97;;;1.87;;
33152;SDS011;19509;43.862;26.176;2022-12-10T11:36:22;1.80;;;1.80;;
33152;SDS011;19509;43.862;26.176;2022-12-10T11:39:20;2.20;;;2.10;;
33152;SDS011;19509;43.862;26.176;2022-12-10T11:44:58;2.00;;;2.00;;
33152;SDS011;19509;43.862;26.176;2022-12-10T11:53:12;2.23;;;2.23;;
33152;SDS011;19509;43.862;26.176;2022-12-10T11:55:47;2.13;;;2.13;;
33152;SDS011;19509;43.862;26.176;2022-12-10T12:07:03;1.77;;;1.77;;
33152;SDS011;19509;43.862;26.176;2022-12-10T12:14:36;1.63;;;1.63;;
33152;SDS011;19509;43.862;26.176;2022-12-10T12:19:48;1.57;;;1.57;;
33152;SDS011;19509;43.862;26.176;2022-12-10T12:22:26;1.90;;;1.90;;
33152;SDS011;19509;43.862;26.176;2022-12-10T12:25:00;1.80;;;1.80;;
33152;SDS011;19509;43.862;26.176;2022-12-10T12:27:51;1.90;;;1.90;;
33152;SDS011;19509;43.862;26.176;2022-12-10T12:30:25;2.00;;;2.00;;
33152;SDS011;19509;43.862;26.176;2022-12-10T12:43:58;1.40;;;1.40;;
33152;SDS011;19509;43.862;26.176;2022-12-10T12:46:35;1.57;;;1.57;;
33152;SDS011;19509;43.862;26.176;2022-12-10T12:54:59;1.73;;;1.73;;
33152;SDS011;19509;43.862;26.176;2022-12-10T12:57:42;1.70;;;1.70;;
33152;SDS011;19509;43.862;26.176;2022-12-10T13:00:14;2.03;;;2.03;;
33152;SDS011;19509;43.862;26.176;2022-12-10T13:02:52;1.87;;;1.87;;
33152;SDS011;19509;43.862;26.176;2022-12-10T13:05:26;1.90;;;1.80;;
33152;SDS011;19509;43.862;26.176;2022-12-10T13:08:38;1.57;;;1.57;;
33152;SDS011;19509;43.862;26.176;2022-12-10T13:24:43;3.17;;;3.07;;
33152;SDS011;19509;43.862;26.176;2022-12-10T13:27:45;2.53;;;2.53;;
33152;SDS011;19509;43.862;26.176;2022-12-10T13:37:34;2.23;;;2.13;;
33152;SDS011;19509;43.862;26.176;2022-12-10T13:42:33;2.30;;;2.30;;
33152;SDS011;19509;43.862;26.176;2022-12-10T13:47:47;4.77;;;4.60;;
33152;SDS011;19509;43.862;26.176;2022-12-10T13:53:46;4.03;;;3.93;;
33152;SDS011;19509;43.862;26.176;2022-12-10T14:06:53;3.80;;;3.70;;
33152;SDS011;19509;43.862;26.176;2022-12-10T14:09:24;2.40;;;2.40;;
33152;SDS011;19509;43.862;26.176;2022-12-10T14:14:32;2.00;;;2.00;;
33152;SDS011;19509;43.862;26.176;2022-12-10T14:17:04;2.23;;;2.23;;
33152;SDS011;19509;43.862;26.176;2022-12-10T14:19:31;2.87;;;1.73;;
33152;SDS011;19509;43.862;26.176;2022-12-10T14:22:03;2.00;;;2.00;;
33152;SDS011;19509;43.862;26.176;2022-12-10T14:24:34;2.17;;;2.17;;
33152;SDS011;19509;43.862;26.176;2022-12-10T14:27:19;2.10;;;2.10;;
33152;SDS011;19509;43.862;26.176;2022-12-10T14:29:57;2.13;;;2.13;;
33152;SDS011;19509;43.862;26.176;2022-12-10T14:32:26;1.70;;;1.70;;
33152;SDS011;19509;43.862;26.176;2022-12-10T14:35:04;2.07;;;2.07;;
33152;SDS011;19509;43.862;26.176;2022-12-10T14:37:33;2.13;;;2.13;;
33152;SDS011;19509;43.862;26.176;2022-12-10T14:40:01;2.60;;;2.60;;
33152;SDS011;19509;43.862;26.176;2022-12-10T14:42:30;2.70;;;2.60;;
33152;SDS011;19509;43.862;26.176;2022-12-10T14:44:57;2.10;;;2.00;;
33152;SDS011;19509;43.862;26.176;2022-12-10T14:47:25;2.17;;;2.07;;
33152;SDS011;19509;43.862;26.176;2022-12-10T14:49:52;2.83;;;2.73;;
33152;SDS011;19509;43.862;26.176;2022-12-10T14:52:24;2.70;;;2.60;;
33152;SDS011;19509;43.862;26.176;2022-12-10T14:54:56;2.50;;;2.50;;
33152;SDS011;19509;43.862;26.176;2022-12-10T14:57:26;2.73;;;2.73;;
33152;SDS011;19509;43.862;26.176;2022-12-10T15:00:00;2.63;;;2.63;;
33152;SDS011;19509;43.862;26.176;2022-12-10T15:02:34;3.40;;;3.20;;
33152;SDS011;19509;43.862;26.176;2022-12-10T15:05:03;3.30;;;3.20;;
33152;SDS011;19509;43.862;26.176;2022-12-10T15:07:35;2.90;;;2.80;;
33152;SDS011;19509;43.862;26.176;2022-12-10T15:10:05;3.27;;;3.07;;
33152;SDS011;19509;43.862;26.176;2022-12-10T15:12:37;3.20;;;3.07;;
33152;SDS011;19509;43.862;26.176;2022-12-10T15:18:14;4.00;;;3.90;;
33152;SDS011;19509;43.862;26.176;2022-12-10T15:26:00;5.10;;;4.90;;
33152;SDS011;19509;43.862;26.176;2022-12-10T15:28:50;4.30;;;4.20;;
33152;SDS011;19509;43.862;26.176;2022-12-10T15:33:55;4.43;;;4.33;;
33152;SDS011;19509;43.862;26.176;2022-12-10T15:38:56;3.70;;;3.60;;
33152;SDS011;19509;43.862;26.176;2022-12-10T15:44:16;3.73;;;3.63;;
33152;SDS011;19509;43.862;26.176;2022-12-10T15:47:12;3.47;;;3.37;;
33152;SDS011;19509;43.862;26.176;2022-12-10T15:49:42;3.80;;;3.70;;
33152;SDS011;19509;43.862;26.176;2022-12-10T15:52:11;3.60;;;3.50;;
33152;SDS011;19509;43.862;26.176;2022-12-10T15:54:39;4.47;;;4.33;;
33152;SDS011;19509;43.862;26.176;2022-12-10T15:57:23;4.77;;;4.60;;
33152;SDS011;19509;43.862;26.176;2022-12-10T15:59:51;4.13;;;4.03;;
33152;SDS011;19509;43.862;26.176;2022-12-10T16:05:10;5.30;;;5.10;;
33152;SDS011;19509;43.862;26.176;2022-12-10T16:07:36;8.40;;;7.97;;
33152;SDS011;19509;43.862;26.176;2022-12-10T16:10:02;7.70;;;7.30;;
33152;SDS011;19509;43.862;26.176;2022-12-10T16:12:28;11.60;;;10.80;;
33152;SDS011;19509;43.862;26.176;2022-12-10T16:14:54;10.30;;;9.63;;
33152;SDS011;19509;43.862;26.176;2022-12-10T16:17:25;5.87;;;5.67;;
33152;SDS011;19509;43.862;26.176;2022-12-10T16:19:52;5.00;;;4.80;;
33152;SDS011;19509;43.862;26.176;2022-12-10T16:22:18;5.43;;;5.23;;
33152;SDS011;19509;43.862;26.176;2022-12-10T16:24:44;5.27;;;5.07;;
33152;SDS011;19509;43.862;26.176;2022-12-10T16:27:12;5.40;;;5.20;;
33152;SDS011;19509;43.862;26.176;2022-12-10T16:29:39;5.53;;;5.23;;
33152;SDS011;19509;43.862;26.176;2022-12-10T16:32:07;6.30;;;6.10;;
33152;SDS011;19509;43.862;26.176;2022-12-10T16:34:34;7.07;;;6.77;;
33152;SDS011;19509;43.862;26.176;2022-12-10T16:36:59;5.80;;;5.60;;
33152;SDS011;19509;43.862;26.176;2022-12-10T16:39:25;6.70;;;6.40;;
33152;SDS011;19509;43.862;26.176;2022-12-10T16:41:51;5.87;;;5.67;;
33152;SDS011;19509;43.862;26.176;2022-12-10T16:44:17;5.57;;;5.10;;
33152;SDS011;19509;43.862;26.176;2022-12-10T16:46:43;4.60;;;4.50;;
33152;SDS011;19509;43.862;26.176;2022-12-10T16:49:08;5.97;;;5.77;;
33152;SDS011;19509;43.862;26.176;2022-12-10T16:51:34;8.10;;;7.70;;
33152;SDS011;19509;43.862;26.176;2022-12-10T16:54:00;5.40;;;5.20;;
33152;SDS011;19509;43.862;26.176;2022-12-10T16:56:25;3.43;;;3.33;;
33152;SDS011;19509;43.862;26.176;2022-12-10T16:58:51;4.13;;;4.03;;
33152;SDS011;19509;43.862;26.176;2022-12-10T17:01:21;4.60;;;4.50;;
33152;SDS011;19509;43.862;26.176;2022-12-10T17:03:53;4.83;;;4.73;;
33152;SDS011;19509;43.862;26.176;2022-12-10T17:06:20;4.43;;;4.33;;
33152;SDS011;19509;43.862;26.176;2022-12-10T17:08:47;5.73;;;5.53;;
33152;SDS011;19509;43.862;26.176;2022-12-10T17:11:20;5.40;;;5.30;;
33152;SDS011;19509;43.862;26.176;2022-12-10T17:14:26;6.17;;;5.97;;
33152;SDS011;19509;43.862;26.176;2022-12-10T17:16:54;4.30;;;4.20;;